createdAt,value
2022-08-12T00:00:36.553Z,21.12
2022-08-12T00:03:22.509Z,21.08
2022-08-12T00:06:08.810Z,21.01
2022-08-12T00:08:57.496Z,20.98
2022-08-12T00:11:46.062Z,20.93
2022-08-12T00:14:32.917Z,20.90
2022-08-12T00:17:19.038Z,20.85
2022-08-12T00:20:05.589Z,20.82
2022-08-12T00:22:58.738Z,20.79
2022-08-12T00:26:21.758Z,20.75
2022-08-12T00:29:04.402Z,20.70
2022-08-12T00:31:50.200Z,20.65
2022-08-12T00:34:36.535Z,20.62
2022-08-12T00:37:22.974Z,20.59
2022-08-12T00:40:11.668Z,20.54
2022-08-12T00:42:41.681Z,20.49
2022-08-12T00:45:13.568Z,20.46
2022-08-12T00:47:42.374Z,20.41
2022-08-12T00:50:18.246Z,20.38
2022-08-12T00:52:47.946Z,20.37
2022-08-12T00:55:17.274Z,20.34
2022-08-12T00:57:48.849Z,20.31
2022-08-12T01:00:22.417Z,20.26
2022-08-12T01:02:53.200Z,20.22
2022-08-12T01:05:42.037Z,20.18
2022-08-12T01:08:28.838Z,20.15
2022-08-12T01:11:15.811Z,20.11
2022-08-12T01:13:49.406Z,20.06
2022-08-12T01:16:22.851Z,20.03
2022-08-12T01:18:54.697Z,20.01
2022-08-12T01:21:52.497Z,19.98
2022-08-12T01:24:50.642Z,19.93
2022-08-12T01:27:22.869Z,19.91
2022-08-12T01:29:54.781Z,19.88
2022-08-12T01:32:24.941Z,19.86
2022-08-12T01:35:05.730Z,19.82
2022-08-12T01:37:37.797Z,19.79
2022-08-12T01:40:34.488Z,19.76
2022-08-12T01:43:08.466Z,19.73
2022-08-12T01:45:43.783Z,19.71
2022-08-12T01:48:24.072Z,19.65
2022-08-12T01:51:04.583Z,19.62
2022-08-12T01:53:59.479Z,19.58
2022-08-12T01:56:43.693Z,19.54
2022-08-12T01:59:31.316Z,19.52
2022-08-12T02:02:01.347Z,19.50
2022-08-12T02:05:19.534Z,19.47
2022-08-12T02:08:20.594Z,19.42
2022-08-12T02:11:18.682Z,19.34
2022-08-12T02:14:03.927Z,19.37
2022-08-12T02:16:51.766Z,19.33
2022-08-12T02:19:40.594Z,19.31
2022-08-12T02:22:27.714Z,19.27
2022-08-12T02:25:09.324Z,19.24
2022-08-12T02:27:41.087Z,19.22
2022-08-12T02:30:14.459Z,19.19
2022-08-12T02:32:46.195Z,19.20
2022-08-12T02:35:19.754Z,19.18
2022-08-12T02:37:51.580Z,19.17
2022-08-12T02:40:22.595Z,19.14
2022-08-12T02:42:59.246Z,19.11
2022-08-12T02:45:38.136Z,19.09
2022-08-12T02:48:10.644Z,19.07
2022-08-12T02:50:48.482Z,19.07
2022-08-12T02:53:18.601Z,19.05
2022-08-12T02:55:47.338Z,19.02
2022-08-12T02:58:16.040Z,18.99
2022-08-12T03:00:49.986Z,18.98
2022-08-12T03:03:20.617Z,18.94
2022-08-12T03:05:58.349Z,18.90
2022-08-12T03:08:33.229Z,18.89
2022-08-12T03:11:14.665Z,18.84
2022-08-12T03:13:48.034Z,18.79
2022-08-12T03:16:18.345Z,18.75
2022-08-12T03:18:46.972Z,18.74
2022-08-12T03:21:52.687Z,18.71
2022-08-12T03:24:09.478Z,18.67
2022-08-12T03:26:39.065Z,18.63
2022-08-12T03:29:08.541Z,18.61
2022-08-12T03:31:38.267Z,18.58
2022-08-12T03:34:09.354Z,18.58
2022-08-12T03:36:40.568Z,18.57
2022-08-12T03:39:35.507Z,18.54
2022-08-12T03:42:24.223Z,18.49
2022-08-12T03:45:24.718Z,18.46
2022-08-12T03:48:19.395Z,18.43
2022-08-12T03:51:06.489Z,18.38
2022-08-12T03:53:52.780Z,18.34
2022-08-12T03:56:38.856Z,18.31
2022-08-12T03:59:26.068Z,18.27
2022-08-12T04:01:57.528Z,18.23
2022-08-12T04:04:34.703Z,18.18
2022-08-12T04:07:07.882Z,18.18
2022-08-12T04:09:39.648Z,18.14
2022-08-12T04:12:26.743Z,18.12
2022-08-12T04:15:02.738Z,18.07
2022-08-12T04:17:32.095Z,18.04
2022-08-12T04:20:01.866Z,18.02
2022-08-12T04:22:31.193Z,18.01
2022-08-12T04:25:01.979Z,17.98
2022-08-12T04:27:32.712Z,17.95
2022-08-12T04:30:17.097Z,17.97
2022-08-12T04:32:52.238Z,17.95
2022-08-12T04:35:23.781Z,17.93
2022-08-12T04:37:59.130Z,17.89
2022-08-12T04:40:31.922Z,17.93
2022-08-12T04:43:02.242Z,17.94
2022-08-12T04:45:31.378Z,17.94
2022-08-12T04:48:01.662Z,17.95
2022-08-12T04:50:36.168Z,17.96
2022-08-12T04:53:08.149Z,17.97
2022-08-12T04:55:38.689Z,17.98
2022-08-12T04:58:07.267Z,18.01
2022-08-12T05:00:36.005Z,18.03
2022-08-12T05:03:05.837Z,18.04
2022-08-12T05:05:37.991Z,18.03
2022-08-12T05:08:12.199Z,18.04
2022-08-12T05:10:40.774Z,18.06
2022-08-12T05:13:12.587Z,18.06
2022-08-12T05:16:00.275Z,18.09
2022-08-12T05:18:31.558Z,18.10
2022-08-12T05:21:01.289Z,18.13
2022-08-12T05:23:32.045Z,18.17
2022-08-12T05:26:01.547Z,18.19
2022-08-12T05:28:31.186Z,18.23
2022-08-12T05:31:01.845Z,18.28
2022-08-12T05:33:37.578Z,18.32
2022-08-12T05:36:09.962Z,18.39
2022-08-12T05:38:55.592Z,18.46
2022-08-12T05:41:24.893Z,18.52
2022-08-12T05:43:56.642Z,18.62
2022-08-12T05:46:26.768Z,18.72
2022-08-12T05:48:56.628Z,18.81
2022-08-12T05:51:39.924Z,18.92
2022-08-12T05:54:11.867Z,19.04
2022-08-12T05:56:41.602Z,19.15
2022-08-12T05:59:12.209Z,19.28
2022-08-12T06:02:12.666Z,19.42
2022-08-12T06:04:30.080Z,19.55
2022-08-12T06:07:01.827Z,19.68
2022-08-12T06:09:31.325Z,19.79
2022-08-12T06:12:05.680Z,19.94
2022-08-12T06:14:37.750Z,20.07
2022-08-12T06:17:09.129Z,20.20
2022-08-12T06:20:25.966Z,20.35
2022-08-12T06:22:27.894Z,20.50
2022-08-12T06:24:56.263Z,20.65
2022-08-12T06:27:24.590Z,20.80
2022-08-12T06:30:08.820Z,20.94
2022-08-12T06:32:51.642Z,21.10
2022-08-12T06:35:49.348Z,21.26
2022-08-12T06:38:21.446Z,21.41
2022-08-12T06:41:11.759Z,21.57
2022-08-12T06:44:05.915Z,21.73
2022-08-12T06:46:31.244Z,21.92
2022-08-12T06:49:00.600Z,22.11
2022-08-12T06:51:32.794Z,22.24
2022-08-12T06:54:03.205Z,22.39
2022-08-12T06:57:03.604Z,22.54
2022-08-12T06:59:21.477Z,22.69
2022-08-12T07:01:51.693Z,22.84
2022-08-12T07:04:38.287Z,22.96
2022-08-12T07:07:08.965Z,23.14
2022-08-12T07:10:01.613Z,23.27
2022-08-12T07:12:28.721Z,23.42
2022-08-12T07:14:58.218Z,23.56
2022-08-12T07:17:27.974Z,23.67
2022-08-12T07:20:00.597Z,23.79
2022-08-12T07:22:33.160Z,23.92
2022-08-12T07:25:40.865Z,24.05
2022-08-12T07:28:16.400Z,24.19
2022-08-12T07:30:48.474Z,24.29
2022-08-12T07:33:17.965Z,24.44
2022-08-12T07:35:48.257Z,24.60
2022-08-12T07:38:29.576Z,24.68
2022-08-12T07:41:06.136Z,24.84
2022-08-12T07:43:39.400Z,24.96
2022-08-12T07:46:11.330Z,25.04
2022-08-12T07:48:43.755Z,25.15
2022-08-12T07:51:12.944Z,25.27
2022-08-12T07:54:00.710Z,25.38
2022-08-12T07:56:32.963Z,25.49
2022-08-12T07:59:03.027Z,25.59
2022-08-12T08:01:32.989Z,25.72
2022-08-12T08:04:19.576Z,25.82
2022-08-12T08:06:49.326Z,25.92
2022-08-12T08:09:22.756Z,25.99
2022-08-12T08:12:19.255Z,26.10
2022-08-12T08:14:50.152Z,26.17
2022-08-12T08:17:18.979Z,26.25
2022-08-12T08:20:03.508Z,26.30
2022-08-12T08:22:41.709Z,26.37
2022-08-12T08:25:35.829Z,26.43
2022-08-12T08:28:03.380Z,26.52
2022-08-12T08:30:33.195Z,26.63
2022-08-12T08:33:01.599Z,26.76
2022-08-12T08:35:46.307Z,26.84
2022-08-12T08:38:30.739Z,26.96
2022-08-12T08:42:15.752Z,27.08
2022-08-12T08:44:10.899Z,27.20
2022-08-12T08:46:39.981Z,27.31
2022-08-12T08:49:08.950Z,27.40
2022-08-12T08:51:38.558Z,27.53
2022-08-12T08:54:08.642Z,27.64
2022-08-12T08:56:44.544Z,27.73
2022-08-12T08:59:15.369Z,27.89
2022-08-12T09:01:44.783Z,28.02
2022-08-12T09:05:09.528Z,28.15
2022-08-12T09:07:17.082Z,28.30
2022-08-12T09:10:02.286Z,28.43
2022-08-12T09:12:54.901Z,28.59
2022-08-12T09:15:35.544Z,28.80
2022-08-12T09:18:08.736Z,28.89
2022-08-12T09:20:40.002Z,29.01
2022-08-12T09:23:59.615Z,29.14
2022-08-12T09:26:04.559Z,29.28
2022-08-12T09:28:34.430Z,29.39
2022-08-12T09:32:02.834Z,29.48
2022-08-12T09:34:25.426Z,29.60
2022-08-12T09:37:00.216Z,29.73
2022-08-12T09:40:07.988Z,29.87
2022-08-12T09:42:54.270Z,30.03
2022-08-12T09:46:06.694Z,30.21
2022-08-12T09:48:20.148Z,30.38
2022-08-12T09:50:55.276Z,30.54
2022-08-12T09:53:36.540Z,30.67
2022-08-12T09:56:59.369Z,30.78
2022-08-12T09:59:01.791Z,30.85
2022-08-12T10:01:34.920Z,30.91
2022-08-12T10:04:20.739Z,30.91
2022-08-12T10:06:55.475Z,30.91
2022-08-12T10:09:28.606Z,30.89
2022-08-12T10:12:33.551Z,30.87
2022-08-12T10:15:02.554Z,30.93
2022-08-12T10:17:31.100Z,31.02
2022-08-12T10:20:01.429Z,31.15
2022-08-12T10:22:49.098Z,31.25
2022-08-12T10:26:36.558Z,31.34
2022-08-12T10:28:41.143Z,31.43
2022-08-12T10:31:29.468Z,31.51
2022-08-12T10:34:26.230Z,31.59
2022-08-12T10:37:10.465Z,31.64
2022-08-12T10:40:01.311Z,31.68
2022-08-12T10:43:00.559Z,31.72
2022-08-12T10:45:31.230Z,31.71
2022-08-12T10:48:07.180Z,31.63
2022-08-12T10:51:01.044Z,31.52
2022-08-12T10:53:45.458Z,31.50
2022-08-12T10:56:15.648Z,31.45
2022-08-12T10:58:46.218Z,31.51
2022-08-12T11:03:01.551Z,31.60
2022-08-12T11:04:27.159Z,31.66
2022-08-12T11:07:09.475Z,31.73
2022-08-12T11:10:00.965Z,31.78
2022-08-12T11:12:54.933Z,31.78
2022-08-12T11:15:24.213Z,31.76
2022-08-12T11:18:03.217Z,31.73
2022-08-12T11:20:31.831Z,31.75
2022-08-12T11:23:04.051Z,31.78
2022-08-12T11:25:57.344Z,31.82
2022-08-12T11:28:33.957Z,31.86
2022-08-12T11:31:04.873Z,31.92
2022-08-12T11:34:04.286Z,31.91
2022-08-12T11:36:22.476Z,31.90
2022-08-12T11:38:51.437Z,31.85
2022-08-12T11:41:31.150Z,31.80
2022-08-12T11:44:34.908Z,31.69
2022-08-12T11:46:51.430Z,31.61
2022-08-12T11:49:32.349Z,31.55
2022-08-12T11:52:02.801Z,31.41
2022-08-12T11:54:31.924Z,31.35
2022-08-12T11:58:07.355Z,31.23
2022-08-12T12:02:40.831Z,31.02
2022-08-12T12:05:09.997Z,30.91
2022-08-12T12:08:37.727Z,30.87
2022-08-12T12:10:29.198Z,30.79
2022-08-12T12:12:58.926Z,30.73
2022-08-12T12:15:40.747Z,30.69
2022-08-12T12:18:22.516Z,30.63
2022-08-12T12:21:01.216Z,30.64
2022-08-12T12:23:30.893Z,30.66
2022-08-12T12:26:08.290Z,30.65
2022-08-12T12:28:41.515Z,30.67
2022-08-12T12:32:09.258Z,30.74
2022-08-12T12:34:12.682Z,30.82
2022-08-12T12:37:00.889Z,30.93
2022-08-12T12:39:54.580Z,31.03
2022-08-12T12:42:43.185Z,31.11
2022-08-12T12:45:19.768Z,31.10
2022-08-12T12:48:00.190Z,31.11
2022-08-12T12:52:17.169Z,31.09
2022-08-12T12:54:12.973Z,31.07
2022-08-12T12:56:49.999Z,31.04
2022-08-12T12:59:35.011Z,30.97
2022-08-12T13:02:08.819Z,30.88
2022-08-12T13:04:38.246Z,30.83
2022-08-12T13:07:07.929Z,30.72
2022-08-12T13:09:36.934Z,30.65
2022-08-12T13:12:10.787Z,30.56
2022-08-12T13:14:39.997Z,30.55
2022-08-12T13:17:11.367Z,30.51
2022-08-12T13:19:45.427Z,30.52
2022-08-12T13:22:20.794Z,30.53
2022-08-12T13:24:55.904Z,30.50
2022-08-12T13:27:34.669Z,30.54
2022-08-12T13:30:13.793Z,30.58
2022-08-12T13:32:57.129Z,30.54
2022-08-12T13:35:33.702Z,30.61
2022-08-12T13:38:15.773Z,30.65
2022-08-12T13:40:55.966Z,30.66
2022-08-12T13:43:40.541Z,30.65
2022-08-12T13:46:12.395Z,30.62
2022-08-12T13:48:45.161Z,30.59
2022-08-12T13:51:14.413Z,30.62
2022-08-12T13:53:55.340Z,30.66
2022-08-12T13:56:34.779Z,30.67
2022-08-12T13:59:08.575Z,30.69
2022-08-12T14:01:40.557Z,30.69
2022-08-12T14:04:11.619Z,30.67
2022-08-12T14:06:40.901Z,30.65
2022-08-12T14:09:17.391Z,30.62
2022-08-12T14:11:58.773Z,30.56
2022-08-12T14:14:31.284Z,30.49
2022-08-12T14:17:05.641Z,30.45
2022-08-12T14:19:48.701Z,30.40
2022-08-12T14:22:26.044Z,30.34
2022-08-12T14:24:55.454Z,30.30
2022-08-12T14:28:03.943Z,30.25
2022-08-12T14:30:28.840Z,30.14
2022-08-12T14:32:58.060Z,30.05
2022-08-12T14:35:28.102Z,29.97
2022-08-12T14:38:25.895Z,29.84
2022-08-12T14:40:57.655Z,29.75
2022-08-12T14:43:31.524Z,29.64
2022-08-12T14:46:01.825Z,29.58
2022-08-12T14:48:30.654Z,29.50
2022-08-12T14:52:10.624Z,29.43
2022-08-12T14:55:24.741Z,29.36
2022-08-12T14:59:58.162Z,29.30
2022-08-12T15:02:28.537Z,29.29
2022-08-12T15:04:59.301Z,29.29
2022-08-12T15:07:33.524Z,29.29
2022-08-12T15:10:13.426Z,29.32
2022-08-12T15:12:42.170Z,29.33
2022-08-12T15:15:11.684Z,29.34
2022-08-12T15:17:40.306Z,29.34
2022-08-12T15:20:31.762Z,29.32
2022-08-12T15:23:00.511Z,29.35
2022-08-12T15:25:29.647Z,29.32
2022-08-12T15:28:10.834Z,29.30
2022-08-12T15:30:49.670Z,29.27
2022-08-12T15:33:21.120Z,29.25
2022-08-12T15:35:53.853Z,29.19
2022-08-12T15:38:28.090Z,29.13
2022-08-12T15:41:00.092Z,29.09
2022-08-12T15:44:15.878Z,29.02
2022-08-12T15:46:21.279Z,28.96
2022-08-12T15:48:54.831Z,28.91
2022-08-12T15:51:57.304Z,28.85
2022-08-12T15:54:30.807Z,28.73
2022-08-12T15:57:05.698Z,28.70
2022-08-12T16:00:03.911Z,28.63
2022-08-12T16:02:29.919Z,28.55
2022-08-12T16:04:58.841Z,28.52
2022-08-12T16:07:40.827Z,28.46
2022-08-12T16:10:11.769Z,28.39
2022-08-12T16:12:54.963Z,28.34
2022-08-12T16:15:26.698Z,28.28
2022-08-12T16:18:18.477Z,28.25
2022-08-12T16:20:47.343Z,28.19
2022-08-12T16:23:26.672Z,28.15
2022-08-12T16:26:15.151Z,28.10
2022-08-12T16:28:47.425Z,28.06
2022-08-12T16:31:23.231Z,28.03
2022-08-12T16:33:59.697Z,28.01
2022-08-12T16:36:30.363Z,27.95
2022-08-12T16:39:01.603Z,27.92
2022-08-12T16:41:38.039Z,27.90
2022-08-12T16:44:09.422Z,27.88
2022-08-12T16:46:39.253Z,27.86
2022-08-12T16:49:09.135Z,27.86
2022-08-12T16:51:46.850Z,27.83
2022-08-12T16:54:18.473Z,27.82
2022-08-12T16:56:55.191Z,27.80
2022-08-12T16:59:53.495Z,27.79
2022-08-12T17:02:31.963Z,27.75
2022-08-12T17:05:05.155Z,27.70
2022-08-12T17:07:36.811Z,27.66
2022-08-12T17:10:08.665Z,27.61
2022-08-12T17:12:39.001Z,27.57
2022-08-12T17:15:51.121Z,27.53
2022-08-12T17:18:42.285Z,27.47
2022-08-12T17:20:48.987Z,27.37
2022-08-12T17:23:20.319Z,27.32
2022-08-12T17:25:51.889Z,27.26
2022-08-12T17:28:23.098Z,27.22
2022-08-12T17:30:59.709Z,27.17
2022-08-12T17:33:34.742Z,27.09
2022-08-12T17:36:05.484Z,27.04
2022-08-12T17:38:35.145Z,27.00
2022-08-12T17:41:22.685Z,26.92
2022-08-12T17:43:58.577Z,26.86
2022-08-12T17:46:33.093Z,26.83
2022-08-12T17:49:18.834Z,26.80
2022-08-12T17:52:02.583Z,26.76
2022-08-12T17:54:32.830Z,26.70
2022-08-12T17:57:02.547Z,26.67
2022-08-12T17:59:48.029Z,26.63
2022-08-12T18:02:29.949Z,26.58
2022-08-12T18:05:09.440Z,26.55
2022-08-12T18:07:39.520Z,26.52
2022-08-12T18:10:09.147Z,26.47
2022-08-12T18:12:42.835Z,26.42
2022-08-12T18:15:26.024Z,26.37
2022-08-12T18:17:59.240Z,26.32
2022-08-12T18:20:29.768Z,26.27
2022-08-12T18:23:03.141Z,26.22
2022-08-12T18:26:14.989Z,26.16
2022-08-12T18:28:43.204Z,26.06
2022-08-12T18:31:16.871Z,25.97
2022-08-12T18:33:48.079Z,25.89
2022-08-12T18:36:22.429Z,25.82
2022-08-12T18:38:56.060Z,25.74
2022-08-12T18:41:34.305Z,25.63
2022-08-12T18:44:09.483Z,25.57
2022-08-12T18:46:53.678Z,25.45
2022-08-12T18:49:30.737Z,25.36
2022-08-12T18:52:05.731Z,25.27
2022-08-12T18:54:48.737Z,25.17
2022-08-12T18:58:07.582Z,25.07
2022-08-12T19:00:21.213Z,24.97
2022-08-12T19:02:54.037Z,24.87
2022-08-12T19:05:53.254Z,24.78
2022-08-12T19:08:14.420Z,24.68
2022-08-12T19:10:50.195Z,24.60
2022-08-12T19:13:37.692Z,24.51
2022-08-12T19:16:11.584Z,24.40
2022-08-12T19:18:44.970Z,24.32
2022-08-12T19:21:17.046Z,24.24
2022-08-12T19:24:11.626Z,24.15
2022-08-12T19:26:42.566Z,24.07
2022-08-12T19:29:12.054Z,24.00
2022-08-12T19:31:57.706Z,23.93
2022-08-12T19:37:27.195Z,23.74
2022-08-12T19:40:08.694Z,23.70
2022-08-12T19:43:00.726Z,23.62
2022-08-12T19:45:42.419Z,23.57
2022-08-12T19:48:19.289Z,23.47
2022-08-12T19:50:53.023Z,23.39
2022-08-12T19:53:23.506Z,23.34
2022-08-12T19:55:54.379Z,23.27
2022-08-12T19:58:24.516Z,23.22
2022-08-12T20:00:55.446Z,23.16
2022-08-12T20:03:37.937Z,23.11
2022-08-12T20:06:16.078Z,23.02
2022-08-12T20:08:47.912Z,22.94
2022-08-12T20:12:09.094Z,22.90
2022-08-12T20:14:08.321Z,22.83
2022-08-12T20:16:57.777Z,22.77
2022-08-12T20:20:01.130Z,22.71
2022-08-12T20:22:24.015Z,22.64
2022-08-12T20:25:01.320Z,22.61
2022-08-12T20:28:04.559Z,22.54
2022-08-12T20:30:52.446Z,22.48
2022-08-12T20:33:18.336Z,22.41
2022-08-12T20:36:13.838Z,22.37
2022-08-12T20:38:46.033Z,22.31
2022-08-12T20:41:19.031Z,22.28
2022-08-12T20:43:50.515Z,22.25
2022-08-12T20:46:21.230Z,22.19
2022-08-12T20:48:54.730Z,22.17
2022-08-12T20:51:23.952Z,22.09
2022-08-12T20:53:59.745Z,22.05
2022-08-12T20:56:33.026Z,22.00
2022-08-12T20:59:06.791Z,21.92
2022-08-12T21:01:47.657Z,21.86
2022-08-12T21:04:36.764Z,21.79
2022-08-12T21:07:09.535Z,21.73
2022-08-12T21:09:44.447Z,21.68
2022-08-12T21:12:27.632Z,21.65
2022-08-12T21:15:17.256Z,21.58
2022-08-12T21:18:10.583Z,21.53
2022-08-12T21:20:50.678Z,21.47
2022-08-12T21:23:21.459Z,21.44
2022-08-12T21:26:01.032Z,21.39
2022-08-12T21:28:31.100Z,21.36
2022-08-12T21:32:35.152Z,21.32
2022-08-12T21:34:07.233Z,21.26
2022-08-12T21:36:40.268Z,21.21
2022-08-12T21:39:21.649Z,21.16
2022-08-12T21:41:54.823Z,21.12
2022-08-12T21:45:44.558Z,21.10
2022-08-12T21:47:20.263Z,21.05
2022-08-12T21:49:54.161Z,21.01
2022-08-12T21:52:28.419Z,20.98
2022-08-12T21:55:04.240Z,20.97
2022-08-12T21:57:48.208Z,20.93
2022-08-12T22:00:20.840Z,20.90
2022-08-12T22:03:07.806Z,20.86
2022-08-12T22:05:53.746Z,20.82
2022-08-12T22:08:26.135Z,20.76
2022-08-12T22:10:56.514Z,20.74
2022-08-12T22:14:02.037Z,20.71
2022-08-12T22:16:17.819Z,20.67
2022-08-12T22:18:50.240Z,20.63
2022-08-12T22:21:22.310Z,20.59
2022-08-12T22:24:04.931Z,20.52
2022-08-12T22:26:37.458Z,20.49
2022-08-12T22:29:26.726Z,20.45
2022-08-12T22:31:56.300Z,20.40
2022-08-12T22:34:29.334Z,20.37
2022-08-12T22:36:58.367Z,20.34
2022-08-12T22:39:27.340Z,20.31
2022-08-12T22:42:12.974Z,20.28
2022-08-12T22:45:00.003Z,20.22
2022-08-12T22:47:53.911Z,20.18
2022-08-12T22:50:27.437Z,20.14
2022-08-12T22:53:15.109Z,20.11
2022-08-12T22:55:59.523Z,20.08
2022-08-12T22:58:40.288Z,20.04
2022-08-12T23:01:13.819Z,19.99
2022-08-12T23:04:00.487Z,19.94
2022-08-12T23:06:31.381Z,19.93
2022-08-12T23:08:59.711Z,19.89
2022-08-12T23:11:33.863Z,19.89
2022-08-12T23:14:08.898Z,19.85
2022-08-12T23:16:41.234Z,19.82
2022-08-12T23:19:18.152Z,19.81
2022-08-12T23:22:06.684Z,19.77
2022-08-12T23:24:56.357Z,19.72
2022-08-12T23:27:50.900Z,19.67
2022-08-12T23:30:31.649Z,19.63
2022-08-12T23:33:02.330Z,19.59
2022-08-12T23:35:53.795Z,19.58
2022-08-12T23:38:31.346Z,19.54
2022-08-12T23:41:01.312Z,19.51
2022-08-12T23:43:38.390Z,19.49
2022-08-12T23:46:10.416Z,19.49
2022-08-12T23:48:40.937Z,19.49
2022-08-12T23:51:22.382Z,19.47
2022-08-12T23:53:55.284Z,19.43
2022-08-12T23:56:25.336Z,19.41
2022-08-12T23:58:57.523Z,19.40
